Weather at Alta Airport

Public forecast

Using degrees Celsius for public forecast. Weather courtesy of forecast.io.

Current aviation weather report (METAR) for Alta Airport

Report is more than 6 hours old.

2022/11/14 15:20 (retrieved 2 years ago)

ENAT 141520Z 22004KT 9999 BKN031 01/01 Q1020 RMK WIND 700FT 34006KT

Closest aviation forecast (TAF) to Alta Airport

Forecast is more than 12 hours old.

Closest forecast is Lakselv Airport, Banak, 33.3 nm (61.7 km) E.

2023/02/22 18:36 (retrieved 1 year ago)

TAF ENNA 221700Z 2218/2318 18020KT CAVOK TEMPO 2218/2306 18030G45KT BLSN TEMPO 2302/2309 2500 -SN VV010 TEMPO 2306/2318 18020G35KT BLSN